Pleasureville, Pennsylvania
Current Conditions -  °F | °C
As of 9:04 AM on Monday 24 Nov 2014 (Local Time) from KTHV Reporting Station
Scattered Clouds Scattered Clouds  
Wind Chill: 65°   Ceiling: Unl
Heat Index: 65°   Visibility: 10mi
Dew Point: 58°   Wind: 12mph
Humidity: 78%   Direction: 190°S
Pressure: 29.62"   Gusts: 29mph
Location:  39.9768°N, 76.6853°W
Report Text: KTHV 241404Z AUTO 19010G25KT 10SM SCT022 18/14 A2962 RMK AO2 T01830144
Loading
Personal Weather Stations






























Interactive Weather Map New forecast layout! Learn more

10-Day Weather Forecast

Advertisements
Track Severe Weather on mobile